CheckWX is a tool to help pilots better visualize weather data.  It is not intended as a substitute for an official pre-flight weather briefing.

14:00:46 UTC

ETWM METAR
Meppe Airport
Germany
Current

41 mins ago

ETWM 251320Z 18011G28KT 9999 FEW048 SCT070 19/06 Q1007 BLU+
Observed
Apr-25 @ 13:20 UTC
Wind
  • 180° at 11 KTS
  • Gusting to 28 KTS
Visibility
10,000+ meters
Flight Rules
VFR
Cloud Levels
  • Few at 4,800' AGL
  • Scattered at 7,000' AGL
Temperature
19°C / 66°F
Dewpoint
C / 43°F
Humidity
43%
Altimeter
29.73" Hg
Pressure
1006.92 hPa
Previous

2 hours ago

ETWM 251220Z 16011KT 9999 FEW045 SCT220 18/06 Q1007 BLU+
Observed
Apr-25 @ 12:20 UTC
Wind
  • 160° at 11 KTS
Visibility
10,000+ meters
Flight Rules
VFR
Cloud Levels
  • Few at 4,500' AGL
  • Scattered at 22,000' AGL
Temperature
18°C / 64°F
Dewpoint
C / 43°F
Humidity
46%
Altimeter
29.73" Hg
Pressure
1006.92 hPa
Previous

3 hours ago

ETWM 251120Z 17010KT 9999 FEW042 BKN250 18/06 Q1007 BLU+
Observed
Apr-25 @ 11:20 UTC
Wind
  • 170° at 10 KTS
Visibility
10,000+ meters
Flight Rules
VFR
Cloud Levels
  • Few at 4,200' AGL
  • Broken at 25,000' AGL
Temperature
18°C / 64°F
Dewpoint
C / 43°F
Humidity
46%
Altimeter
29.73" Hg
Pressure
1006.92 hPa